createdAt,value
2023-02-16T00:02:50.781Z,26.23
2023-02-16T00:05:54.511Z,26.80
2023-02-16T00:08:59.848Z,24.07
2023-02-16T00:12:20.847Z,25.20
2023-02-16T00:15:24.744Z,24.67
2023-02-16T00:18:28.372Z,25.27
2023-02-16T00:21:32.648Z,25.67
2023-02-16T00:24:38.115Z,23.50
2023-02-16T00:27:41.767Z,25.50
2023-02-16T00:30:45.519Z,24.53
2023-02-16T00:33:51.051Z,26.93
2023-02-16T00:36:58.295Z,24.53
2023-02-16T00:40:04.143Z,26.73
2023-02-16T00:43:09.029Z,25.10
2023-02-16T00:46:14.859Z,26.33
2023-02-16T00:49:19.785Z,27.27
2023-02-16T00:52:36.269Z,26.00
2023-02-16T00:55:43.084Z,24.37
2023-02-16T00:58:47.180Z,26.17
2023-02-16T01:01:51.613Z,25.83
2023-02-16T01:04:55.568Z,26.57
2023-02-16T01:08:17.073Z,25.37
2023-02-16T01:11:24.239Z,25.37
2023-02-16T01:14:28.216Z,26.30
2023-02-16T01:17:32.030Z,26.67
2023-02-16T01:20:36.794Z,25.40
2023-02-16T01:23:40.509Z,27.17
2023-02-16T01:26:49.112Z,25.47
2023-02-16T01:29:52.727Z,25.63
2023-02-16T01:32:56.807Z,23.97
2023-02-16T01:36:00.704Z,24.40
2023-02-16T01:39:05.476Z,24.87
2023-02-16T01:42:31.195Z,23.73
2023-02-16T01:45:39.427Z,23.93
2023-02-16T01:48:43.248Z,24.77
2023-02-16T01:51:54.670Z,24.53
2023-02-16T01:55:06.780Z,24.33
2023-02-16T01:58:16.717Z,23.20
2023-02-16T02:01:54.621Z,21.77
2023-02-16T02:05:19.407Z,22.93
2023-02-16T02:08:30.897Z,21.67
2023-02-16T02:11:38.749Z,21.90
2023-02-16T02:14:44.444Z,23.43
2023-02-16T02:17:49.853Z,22.47
2023-02-16T02:21:24.313Z,22.60
2023-02-16T02:25:05.592Z,22.27
2023-02-16T02:28:17.124Z,22.60
2023-02-16T02:31:31.684Z,22.53
2023-02-16T02:34:48.708Z,21.83
2023-02-16T02:38:00.169Z,23.80
2023-02-16T02:41:15.122Z,23.10
2023-02-16T02:44:24.173Z,23.47
2023-02-16T02:47:40.043Z,26.13
2023-02-16T02:51:11.996Z,25.37
2023-02-16T02:54:38.042Z,23.47
2023-02-16T02:58:15.389Z,22.13
2023-02-16T03:01:23.372Z,22.47
2023-02-16T03:04:32.378Z,23.00
2023-02-16T03:07:48.194Z,22.67
2023-02-16T03:11:13.080Z,23.07
2023-02-16T03:14:20.612Z,23.73
2023-02-16T03:17:50.497Z,22.20
2023-02-16T03:21:11.902Z,23.13
2023-02-16T03:24:38.030Z,23.70
2023-02-16T03:28:01.855Z,22.80
2023-02-16T03:31:07.976Z,24.20
2023-02-16T03:34:13.800Z,23.47
2023-02-16T03:37:17.901Z,23.67
2023-02-16T03:40:33.516Z,23.70
2023-02-16T03:43:37.090Z,24.23
2023-02-16T03:46:40.738Z,23.07
2023-02-16T03:49:45.855Z,22.93
2023-02-16T03:52:49.993Z,24.00
2023-02-16T03:55:53.663Z,24.30
2023-02-16T03:58:57.441Z,24.13
2023-02-16T04:02:01.463Z,23.37
2023-02-16T04:05:07.315Z,24.67
2023-02-16T04:08:11.774Z,23.77
2023-02-16T04:11:32.440Z,23.27
2023-02-16T04:14:36.141Z,23.07
2023-02-16T04:17:39.801Z,23.77
2023-02-16T04:20:45.392Z,24.90
2023-02-16T04:23:48.967Z,25.03
2023-02-16T04:26:52.791Z,25.37
2023-02-16T04:29:56.535Z,26.80
2023-02-16T04:33:00.191Z,26.03
2023-02-16T04:36:05.608Z,23.80
2023-02-16T04:39:09.293Z,24.80
2023-02-16T04:42:12.941Z,24.73
2023-02-16T04:45:16.519Z,25.77
2023-02-16T04:48:20.196Z,26.70
2023-02-16T04:51:25.642Z,26.00
2023-02-16T04:54:29.295Z,26.83
2023-02-16T04:57:32.874Z,27.27
2023-02-16T05:00:37.552Z,26.97
2023-02-16T05:03:41.187Z,26.17
2023-02-16T05:06:46.488Z,27.43
2023-02-16T05:09:50.219Z,29.40
2023-02-16T05:13:11.132Z,29.50
2023-02-16T05:16:14.988Z,29.13
2023-02-16T05:19:18.787Z,29.40
2023-02-16T05:22:24.366Z,28.83
2023-02-16T05:25:28.116Z,28.07
2023-02-16T05:28:31.915Z,25.73
2023-02-16T05:31:35.948Z,27.00
2023-02-16T05:34:39.768Z,25.70
2023-02-16T05:37:45.038Z,25.93
2023-02-16T05:40:49.261Z,26.27
2023-02-16T05:43:54.489Z,26.97
2023-02-16T05:46:58.263Z,27.10
2023-02-16T05:50:01.872Z,25.83
2023-02-16T05:53:07.140Z,26.90
2023-02-16T05:56:11.425Z,26.77
2023-02-16T05:59:16.253Z,26.47
2023-02-16T06:02:20.091Z,26.57
2023-02-16T06:05:23.864Z,25.70
2023-02-16T06:08:29.606Z,25.67
2023-02-16T06:11:39.222Z,25.53
2023-02-16T06:14:42.994Z,25.53
2023-02-16T06:17:46.712Z,26.23
2023-02-16T06:20:50.935Z,27.20
2023-02-16T06:23:56.224Z,27.90
2023-02-16T06:27:00.057Z,28.53
2023-02-16T06:30:04.554Z,30.10
2023-02-16T06:33:08.463Z,29.73
2023-02-16T06:36:13.203Z,27.20
2023-02-16T06:39:18.443Z,27.07
2023-02-16T06:42:22.242Z,26.27
2023-02-16T06:45:25.940Z,28.13
2023-02-16T06:48:29.801Z,26.73
2023-02-16T06:51:33.704Z,26.27
2023-02-16T06:54:38.900Z,25.23
2023-02-16T06:57:42.695Z,27.53
2023-02-16T07:00:46.667Z,27.40
2023-02-16T07:03:51.927Z,26.77
2023-02-16T07:06:55.845Z,26.50
2023-02-16T07:10:02.921Z,26.97
2023-02-16T07:13:06.683Z,25.93
2023-02-16T07:16:11.237Z,26.03
2023-02-16T07:19:15.031Z,25.17
2023-02-16T07:22:22.861Z,24.13
2023-02-16T07:25:30.241Z,25.40
2023-02-16T07:28:34.381Z,26.40
2023-02-16T07:31:38.191Z,26.67
2023-02-16T07:34:42.071Z,27.90
2023-02-16T07:37:45.927Z,26.73
2023-02-16T07:40:51.042Z,26.90
2023-02-16T07:43:55.020Z,27.60
2023-02-16T07:46:58.777Z,28.37
2023-02-16T07:50:02.752Z,27.17
2023-02-16T07:53:06.683Z,27.23
2023-02-16T07:56:20.973Z,27.80
2023-02-16T07:59:24.767Z,28.03
2023-02-16T08:02:28.805Z,27.30
2023-02-16T08:05:32.699Z,27.73
2023-02-16T08:08:37.144Z,29.03
2023-02-16T08:11:42.867Z,30.00
2023-02-16T08:14:48.108Z,28.60
2023-02-16T08:17:51.931Z,26.77
2023-02-16T08:21:04.214Z,26.40
2023-02-16T08:24:09.812Z,24.97
2023-02-16T08:27:15.134Z,26.80
2023-02-16T08:30:20.802Z,25.00
2023-02-16T08:33:25.923Z,26.73
2023-02-16T08:36:32.680Z,25.33
2023-02-16T08:39:37.407Z,26.47
2023-02-16T08:42:42.751Z,22.73
2023-02-16T08:45:47.867Z,23.27
2023-02-16T08:48:51.752Z,24.13
2023-02-16T08:51:57.632Z,22.23
2023-02-16T08:55:01.428Z,22.10
2023-02-16T08:58:06.783Z,22.67
2023-02-16T09:01:13.286Z,22.47
2023-02-16T09:04:18.079Z,22.23
2023-02-16T09:07:22.506Z,23.30
2023-02-16T09:10:26.273Z,23.73
2023-02-16T09:13:31.574Z,22.63
2023-02-16T09:16:38.695Z,24.07
2023-02-16T09:19:43.819Z,22.17
2023-02-16T09:22:48.790Z,22.97
2023-02-16T09:25:52.529Z,22.00
2023-02-16T09:28:59.103Z,22.33
2023-02-16T09:32:03.250Z,20.23
2023-02-16T09:35:07.963Z,20.73
2023-02-16T09:38:11.731Z,20.80
2023-02-16T09:41:26.585Z,21.80
2023-02-16T09:44:40.040Z,23.53
2023-02-16T09:47:48.173Z,21.20
2023-02-16T09:50:55.458Z,22.07
2023-02-16T09:54:04.117Z,23.07
2023-02-16T09:57:17.952Z,22.33
2023-02-16T10:00:36.012Z,21.63
2023-02-16T10:03:56.646Z,19.93
2023-02-16T10:07:11.063Z,20.97
2023-02-16T10:10:20.433Z,21.30
2023-02-16T10:13:34.083Z,22.50
2023-02-16T10:16:44.195Z,21.90
2023-02-16T10:19:54.905Z,21.60
2023-02-16T10:23:06.735Z,22.07
2023-02-16T10:26:19.216Z,21.57
2023-02-16T10:29:24.448Z,20.63
2023-02-16T10:32:37.301Z,20.47
2023-02-16T10:35:47.986Z,21.97
2023-02-16T10:38:59.297Z,19.97
2023-02-16T10:42:10.122Z,19.33
2023-02-16T10:45:27.205Z,19.50
2023-02-16T10:48:33.624Z,21.17
2023-02-16T10:51:40.762Z,21.07
2023-02-16T10:54:44.620Z,19.47
2023-02-16T10:57:56.266Z,21.23
2023-02-16T11:01:08.681Z,20.63
2023-02-16T11:04:31.896Z,19.90
2023-02-16T11:07:35.689Z,19.17
2023-02-16T11:10:42.886Z,21.97
2023-02-16T11:13:50.260Z,21.70
2023-02-16T11:17:05.803Z,21.50
2023-02-16T11:20:31.349Z,22.33
2023-02-16T11:23:36.372Z,21.80
2023-02-16T11:26:40.212Z,21.40
2023-02-16T11:29:43.979Z,23.23
2023-02-16T11:32:47.829Z,22.47
2023-02-16T11:35:53.306Z,22.00
2023-02-16T11:38:59.739Z,21.73
2023-02-16T11:42:06.574Z,22.87
2023-02-16T11:45:22.974Z,21.93
2023-02-16T11:48:29.450Z,23.70
2023-02-16T11:51:36.740Z,22.03
2023-02-16T11:54:50.566Z,22.57
2023-02-16T11:57:56.652Z,22.20
2023-02-16T12:01:11.251Z,21.17
2023-02-16T12:04:29.457Z,21.40
2023-02-16T12:07:42.454Z,21.37
2023-02-16T12:11:03.409Z,21.50
2023-02-16T12:14:24.562Z,21.13
2023-02-16T12:17:49.501Z,23.97
2023-02-16T12:21:00.366Z,19.47
2023-02-16T12:24:18.171Z,19.60
2023-02-16T12:27:27.552Z,20.17
2023-02-16T12:30:42.304Z,19.83
2023-02-16T12:33:53.431Z,19.50
2023-02-16T12:37:05.909Z,19.53
2023-02-16T12:40:25.821Z,19.03
2023-02-16T12:43:39.249Z,19.90
2023-02-16T12:46:44.973Z,18.30
2023-02-16T12:49:55.263Z,19.00
2023-02-16T12:53:04.169Z,18.57
2023-02-16T12:56:14.267Z,18.27
2023-02-16T12:59:24.016Z,18.87
2023-02-16T13:02:33.587Z,17.27
2023-02-16T13:05:39.611Z,16.20
2023-02-16T13:08:49.979Z,16.07
2023-02-16T13:12:02.451Z,16.40
2023-02-16T13:15:14.708Z,15.83
2023-02-16T13:18:23.166Z,17.27
2023-02-16T13:25:29.424Z,16.43
2023-02-16T13:29:15.028Z,18.67
2023-02-16T13:32:43.718Z,17.77
2023-02-16T13:36:13.133Z,18.50
2023-02-16T13:39:36.066Z,17.47
2023-02-16T13:43:02.729Z,16.67
2023-02-16T13:46:14.599Z,16.93
2023-02-16T13:49:32.830Z,16.67
2023-02-16T13:52:39.399Z,18.07
2023-02-16T13:55:43.260Z,17.33
2023-02-16T13:58:47.046Z,17.60
2023-02-16T14:01:55.362Z,17.43
2023-02-16T14:05:05.879Z,18.53
2023-02-16T14:08:19.117Z,17.77
2023-02-16T14:11:22.946Z,17.97
2023-02-16T14:14:31.667Z,17.20
2023-02-16T14:17:37.195Z,17.13
2023-02-16T14:20:40.994Z,17.27
2023-02-16T14:23:46.564Z,16.47
2023-02-16T14:26:56.481Z,14.73
2023-02-16T14:30:02.967Z,16.37
2023-02-16T14:33:22.696Z,14.90
2023-02-16T14:36:27.914Z,16.40
2023-02-16T14:39:31.837Z,17.73
2023-02-16T14:42:37.656Z,16.60
2023-02-16T14:45:57.988Z,17.00
2023-02-16T14:49:39.985Z,17.73
2023-02-16T14:53:16.475Z,19.03
2023-02-16T14:56:40.743Z,18.73
2023-02-16T14:59:50.465Z,19.33
2023-02-16T15:03:00.536Z,19.17
2023-02-16T15:06:07.523Z,17.73
2023-02-16T15:09:19.796Z,18.27
2023-02-16T15:12:28.469Z,17.93
2023-02-16T15:15:44.994Z,19.17
2023-02-16T15:18:52.358Z,18.40
2023-02-16T15:22:10.594Z,18.67
2023-02-16T15:25:38.706Z,17.53
2023-02-16T15:28:43.903Z,17.93
2023-02-16T15:31:48.375Z,18.43
2023-02-16T15:34:52.254Z,19.60
2023-02-16T15:38:08.247Z,19.50
2023-02-16T15:41:16.364Z,21.33
2023-02-16T15:44:32.863Z,19.87
2023-02-16T15:47:36.663Z,21.20
2023-02-16T15:50:40.872Z,21.47
2023-02-16T15:53:51.836Z,19.77
2023-02-16T15:56:58.550Z,45.40
2023-02-16T16:00:07.538Z,29.63
2023-02-16T16:03:18.572Z,27.13
2023-02-16T16:06:22.301Z,35.40
2023-02-16T16:09:28.708Z,84.33
2023-02-16T16:12:34.188Z,52.90
2023-02-16T16:15:42.805Z,35.73
2023-02-16T16:18:49.981Z,29.63
2023-02-16T16:21:55.926Z,26.47
2023-02-16T16:24:59.689Z,40.57
2023-02-16T16:28:06.727Z,46.80
2023-02-16T16:31:13.854Z,44.10
2023-02-16T16:34:34.361Z,36.27
2023-02-16T16:37:38.487Z,62.77
2023-02-16T16:40:42.282Z,89.47
2023-02-16T16:43:55.819Z,72.73
2023-02-16T16:47:12.505Z,85.47
2023-02-16T16:50:39.637Z,62.67
2023-02-16T16:53:52.282Z,44.13
2023-02-16T16:56:56.067Z,37.07
2023-02-16T17:00:01.309Z,37.33
2023-02-16T17:03:07.642Z,47.53
2023-02-16T17:06:11.818Z,77.53
2023-02-16T17:09:16.981Z,56.50
2023-02-16T17:12:22.060Z,47.93
2023-02-16T17:15:35.880Z,81.60
2023-02-16T17:18:39.915Z,61.70
2023-02-16T17:21:44.160Z,49.70
2023-02-16T17:24:48.558Z,53.60
2023-02-16T17:27:52.451Z,45.83
2023-02-16T17:30:57.662Z,40.67
2023-02-16T17:34:02.032Z,47.00
2023-02-16T17:37:08.149Z,51.43
2023-02-16T17:40:17.547Z,92.93
2023-02-16T17:43:22.930Z,84.13
2023-02-16T17:46:28.888Z,82.97
2023-02-16T17:49:32.708Z,95.47
2023-02-16T17:52:37.444Z,101.03
2023-02-16T17:55:41.252Z,79.63
2023-02-16T17:58:45.580Z,73.40
2023-02-16T18:01:50.942Z,66.30
2023-02-16T18:04:56.310Z,61.73
2023-02-16T18:08:00.137Z,60.07
2023-02-16T18:11:04.165Z,61.43
2023-02-16T18:14:07.907Z,60.10
2023-02-16T18:17:14.642Z,59.37
2023-02-16T18:20:18.856Z,61.60
2023-02-16T18:23:22.792Z,57.67
2023-02-16T18:26:28.738Z,54.30
2023-02-16T18:29:32.703Z,54.73
2023-02-16T18:32:38.026Z,53.87
2023-02-16T18:35:41.900Z,51.73
2023-02-16T18:38:45.640Z,63.07
2023-02-16T18:41:49.475Z,60.10
2023-02-16T18:44:53.314Z,57.00
2023-02-16T18:47:58.608Z,55.80
2023-02-16T18:51:05.675Z,54.70
2023-02-16T18:54:09.475Z,53.43
2023-02-16T18:57:13.405Z,46.20
2023-02-16T19:00:18.688Z,43.47
2023-02-16T19:03:23.924Z,47.60
2023-02-16T19:06:28.425Z,45.63
2023-02-16T19:09:32.189Z,43.30
2023-02-16T19:12:36.106Z,43.27
2023-02-16T19:15:39.971Z,41.33
2023-02-16T19:18:45.221Z,37.47
2023-02-16T19:21:48.955Z,39.93
2023-02-16T19:24:52.737Z,39.20
2023-02-16T19:27:56.611Z,49.07
2023-02-16T19:31:02.865Z,35.87
2023-02-16T19:34:08.307Z,35.20
2023-02-16T19:37:12.065Z,34.63
2023-02-16T19:40:17.171Z,34.23
2023-02-16T19:43:21.473Z,36.47
2023-02-16T19:46:26.052Z,35.23
2023-02-16T19:49:31.390Z,35.57
2023-02-16T19:52:35.240Z,36.63
2023-02-16T19:55:42.151Z,37.70
2023-02-16T19:58:45.939Z,37.57
2023-02-16T20:01:49.847Z,38.37
2023-02-16T20:04:55.419Z,40.17
2023-02-16T20:07:59.229Z,41.67
2023-02-16T20:11:06.583Z,51.83
2023-02-16T20:14:11.274Z,48.63
2023-02-16T20:17:14.992Z,57.53
2023-02-16T20:20:20.398Z,53.20
2023-02-16T20:23:24.182Z,52.00
2023-02-16T20:26:31.836Z,45.97
2023-02-16T20:29:36.841Z,44.33
2023-02-16T20:32:41.225Z,46.63
2023-02-16T20:35:46.437Z,49.83
2023-02-16T20:38:51.551Z,45.67
2023-02-16T20:41:55.443Z,37.60
2023-02-16T20:44:59.110Z,35.90
2023-02-16T20:48:04.339Z,32.83
2023-02-16T20:51:09.965Z,31.53
2023-02-16T20:54:14.004Z,29.43
2023-02-16T20:57:26.413Z,27.03
2023-02-16T21:00:31.284Z,27.37
2023-02-16T21:03:35.058Z,26.03
2023-02-16T21:06:40.634Z,25.63
2023-02-16T21:09:44.307Z,40.80
2023-02-16T21:12:48.083Z,27.80
2023-02-16T21:15:51.928Z,39.43
2023-02-16T21:18:56.312Z,24.73
2023-02-16T21:22:01.587Z,24.93
2023-02-16T21:25:05.808Z,25.17
2023-02-16T21:28:09.704Z,31.80
2023-02-16T21:31:15.292Z,28.80
2023-02-16T21:34:19.112Z,22.50
2023-02-16T21:37:24.411Z,22.00
2023-02-16T21:40:45.430Z,23.13
2023-02-16T21:43:49.210Z,22.90
2023-02-16T21:46:52.973Z,24.13
2023-02-16T21:49:55.593Z,25.83
2023-02-16T21:53:00.979Z,25.80
2023-02-16T21:56:18.310Z,28.83
2023-02-16T21:59:22.934Z,30.20
2023-02-16T22:02:26.873Z,32.50
2023-02-16T22:05:30.740Z,32.67
2023-02-16T22:08:38.473Z,31.73
2023-02-16T22:11:42.873Z,36.37
2023-02-16T22:14:46.598Z,31.10
2023-02-16T22:17:50.579Z,32.83
2023-02-16T22:20:54.289Z,35.57
2023-02-16T22:24:00.976Z,32.90
2023-02-16T22:27:04.796Z,30.83
2023-02-16T22:30:09.852Z,32.47
2023-02-16T22:33:13.629Z,32.10
2023-02-16T22:36:17.324Z,31.00
2023-02-16T22:39:22.703Z,30.80
2023-02-16T22:42:26.562Z,31.00
2023-02-16T22:45:30.883Z,31.63
2023-02-16T22:48:34.818Z,35.63
2023-02-16T22:51:38.837Z,32.67
2023-02-16T22:54:44.205Z,31.50
2023-02-16T22:57:47.947Z,32.57
2023-02-16T23:00:52.361Z,30.97
2023-02-16T23:03:58.720Z,34.57
2023-02-16T23:07:02.556Z,34.33
2023-02-16T23:10:09.279Z,38.60
2023-02-16T23:13:13.149Z,36.57
2023-02-16T23:16:20.123Z,37.00
2023-02-16T23:19:26.623Z,36.63
2023-02-16T23:22:31.409Z,37.27
2023-02-16T23:25:36.585Z,35.47
2023-02-16T23:28:42.479Z,33.77
2023-02-16T23:34:52.168Z,32.83
2023-02-16T23:37:55.951Z,30.87
2023-02-16T23:41:03.275Z,28.87
2023-02-16T23:44:08.223Z,28.90
2023-02-16T23:47:11.940Z,28.70
2023-02-16T23:50:15.804Z,30.30
2023-02-16T23:53:20.405Z,29.80
2023-02-16T23:56:27.716Z,33.40
2023-02-16T23:59:31.823Z,26.60
